Time;durP1;ratioP1;P1;durP2;ratioP2;P2;SDS_P1;SDS_P2;PMS_P1;PMS_P2;Temp;Humidity;BMP_temperature;BMP_pressure;BME280_temperature;BME280_humidity;BME280_pressure;Samples;Min_cycle;Max_cycle;Signal;HPM_P1;HPM_P2
2021/12/02 00:00:44;;;;;;;62.47;39.75;;;20.20;90.90;;;;;;4159834;28;20361;-67
2021/12/02 00:02:49;;;;;;;58.38;36.72;;;20.10;91.00;;;;;;4161240;28;20128;-67
2021/12/02 00:04:53;;;;;;;53.78;32.75;;;20.20;90.80;;;;;;4161696;28;20038;-67
2021/12/02 00:06:57;;;;;;;48.92;31.63;;;20.20;90.60;;;;;;4160977;28;20152;-67
2021/12/02 00:09:02;;;;;;;52.25;31.67;;;20.30;90.60;;;;;;4162424;28;20045;-66
2021/12/02 00:11:06;;;;;;;45.47;28.17;;;20.20;90.40;;;;;;4159821;28;20125;-69
2021/12/02 00:13:11;;;;;;;50.17;30.42;;;20.20;90.20;;;;;;4161856;28;20049;-68
2021/12/02 00:15:22;;;;;;;42.78;29.65;;;20.20;90.40;;;;;;4160925;28;20072;-67
2021/12/02 00:17:29;;;;;;;47.10;31.08;;;20.20;90.40;;;;;;4162241;28;20045;-66
2021/12/02 00:21:53;;;;;;;49.50;29.50;;;20.00;90.80;;;;;;4155396;28;20041;-67
2021/12/02 00:24:08;;;;;;;49.85;31.35;;;19.80;91.90;;;;;;4154374;28;20060;-67
2021/12/02 00:26:15;;;;;;;52.67;31.42;;;19.90;91.80;;;;;;4155864;28;20056;-67
2021/12/02 00:28:19;;;;;;;47.58;29.50;;;20.00;91.90;;;;;;4162893;28;20057;-67
2021/12/02 00:30:23;;;;;;;49.33;28.10;;;19.90;92.10;;;;;;4159093;28;20108;-66
2021/12/02 00:32:29;;;;;;;43.25;28.80;;;19.80;92.20;;;;;;4176795;28;20045;-67
2021/12/02 00:34:33;;;;;;;52.33;28.60;;;19.90;92.10;;;;;;4156742;28;20077;-67
2021/12/02 00:36:38;;;;;;;52.38;31.80;;;19.90;91.90;;;;;;4157073;28;20057;-67
2021/12/02 00:38:43;;;;;;;49.83;30.42;;;19.90;91.80;;;;;;4160131;28;20037;-67
2021/12/02 00:40:47;;;;;;;52.88;30.13;;;19.90;91.90;;;;;;4161753;28;20490;-66
2021/12/02 00:42:53;;;;;;;41.67;28.67;;;19.90;91.60;;;;;;4160776;28;20056;-66
2021/12/02 00:44:58;;;;;;;45.65;28.60;;;19.90;91.60;;;;;;4160791;28;20107;-66
2021/12/02 00:47:03;;;;;;;43.90;26.40;;;19.90;91.60;;;;;;4162628;28;20123;-68
2021/12/02 00:49:13;;;;;;;35.67;24.27;;;19.90;91.50;;;;;;4162611;28;20055;-67
2021/12/02 00:51:18;;;;;;;35.28;23.98;;;19.90;91.00;;;;;;4160017;28;20056;-67
2021/12/02 00:53:23;;;;;;;36.75;24.40;;;20.20;90.70;;;;;;4161528;28;20198;-67
2021/12/02 00:55:27;;;;;;;36.80;24.40;;;20.30;90.50;;;;;;4161106;28;20629;-67
2021/12/02 00:57:31;;;;;;;36.40;22.17;;;20.40;90.30;;;;;;4160612;28;20045;-67
2021/12/02 00:59:36;;;;;;;32.60;20.60;;;20.50;89.90;;;;;;4160307;28;20513;-67
2021/12/02 01:01:40;;;;;;;36.95;21.88;;;20.30;88.20;;;;;;4141384;28;20073;-67
2021/12/02 01:03:45;;;;;;;39.28;23.75;;;20.30;89.70;;;;;;4160133;28;20072;-67
2021/12/02 01:05:51;;;;;;;40.20;23.58;;;20.20;89.20;;;;;;4121513;28;20246;-67
2021/12/02 01:07:55;;;;;;;36.35;23.40;;;20.20;88.40;;;;;;4157326;28;20545;-67
2021/12/02 01:09:59;;;;;;;35.97;23.15;;;20.10;88.40;;;;;;4157968;28;20136;-67
2021/12/02 01:12:05;;;;;;;41.55;23.63;;;20.10;88.30;;;;;;4143652;28;20514;-67
2021/12/02 01:14:10;;;;;;;35.08;23.08;;;20.20;88.40;;;;;;4159507;28;20038;-68
2021/12/02 01:16:14;;;;;;;33.42;22.23;;;20.30;87.80;;;;;;4159148;28;20107;-68
2021/12/02 01:18:19;;;;;;;35.55;22.77;;;20.50;87.00;;;;;;4157705;28;20041;-69
2021/12/02 01:20:23;;;;;;;33.70;21.52;;;20.50;87.40;;;;;;4159743;28;20116;-68
2021/12/02 01:22:32;;;;;;;31.02;19.77;;;20.50;86.60;;;;;;4159624;28;20042;-67
2021/12/02 01:24:36;;;;;;;46.22;21.25;;;20.40;85.10;;;;;;4143524;28;20050;-66
2021/12/02 01:26:40;;;;;;;31.58;20.80;;;20.60;85.50;;;;;;4143253;28;20060;-67
2021/12/02 01:28:44;;;;;;;35.05;20.38;;;20.70;85.30;;;;;;4123623;28;20508;-66
2021/12/02 01:30:50;;;;;;;31.27;21.00;;;20.80;84.70;;;;;;4125691;28;20054;-65
2021/12/02 01:33:00;;;;;;;42.85;23.60;;;20.80;85.10;;;;;;4106707;28;20058;-65
2021/12/02 01:35:05;;;;;;;36.33;21.17;;;20.70;85.00;;;;;;4116811;28;20658;-66
2021/12/02 01:37:10;;;;;;;32.70;21.40;;;20.60;85.00;;;;;;4123926;28;20611;-66
2021/12/02 01:39:15;;;;;;;44.97;22.35;;;20.70;85.70;;;;;;4125818;28;20085;-65
2021/12/02 01:41:19;;;;;;;40.53;23.13;;;20.60;85.30;;;;;;4123485;28;20560;-65
2021/12/02 01:43:43;;;;;;;36.33;22.70;;;20.70;86.50;;;;;;4126024;28;20122;-65
2021/12/02 01:45:47;;;;;;;41.15;23.52;;;20.60;86.50;;;;;;4125171;28;20046;-65
2021/12/02 01:47:53;;;;;;;36.67;22.38;;;20.60;85.70;;;;;;4125625;28;20072;-65
2021/12/02 01:50:03;;;;;;;37.97;22.35;;;20.70;86.20;;;;;;4125945;28;20061;-66
2021/12/02 01:52:10;;;;;;;36.88;21.95;;;20.70;85.00;;;;;;4117391;28;20035;-65
2021/12/02 01:54:17;;;;;;;35.65;21.20;;;20.60;85.80;;;;;;4127076;28;20043;-65
2021/12/02 01:56:22;;;;;;;33.03;21.02;;;20.70;84.30;;;;;;4124924;28;20057;-65
2021/12/02 01:58:26;;;;;;;35.75;22.63;;;20.80;83.80;;;;;;4128583;28;20509;-66
2021/12/02 02:00:33;;;;;;;30.92;20.73;;;20.80;83.80;;;;;;4136533;28;20468;-66
2021/12/02 02:02:38;;;;;;;36.33;21.40;;;21.00;84.30;;;;;;4156472;28;20069;-65
2021/12/02 02:04:43;;;;;;;34.08;20.63;;;21.10;84.00;;;;;;4159169;28;20049;-65
2021/12/02 02:06:57;;;;;;;34.15;21.65;;;21.10;82.40;;;;;;4159602;28;20053;-65
2021/12/02 02:09:01;;;;;;;43.20;27.50;;;21.10;82.70;;;;;;4160686;28;20133;-65
2021/12/02 02:11:05;;;;;;;48.47;30.55;;;21.30;82.10;;;;;;4161165;28;20064;-66
2021/12/02 02:13:12;;;;;;;57.92;32.30;;;21.30;80.30;;;;;;4161225;28;20071;-67
2021/12/02 02:15:17;;;;;;;63.03;37.67;;;21.40;80.30;;;;;;4161018;28;20057;-68
2021/12/02 02:17:26;;;;;;;50.25;30.92;;;21.50;80.30;;;;;;4160221;28;20049;-67
2021/12/02 02:19:32;;;;;;;45.10;24.05;;;21.50;79.00;;;;;;4161295;28;20033;-69
2021/12/02 02:21:37;;;;;;;44.08;23.98;;;21.50;78.10;;;;;;4161084;28;20038;-68
2021/12/02 02:23:55;;;;;;;49.28;32.28;;;21.60;79.00;;;;;;4160710;28;20527;-67
2021/12/02 02:26:00;;;;;;;43.13;28.05;;;21.70;79.10;;;;;;4159336;28;20736;-68
2021/12/02 02:28:04;;;;;;;43.40;27.77;;;21.60;77.10;;;;;;4161977;28;20045;-68
2021/12/02 02:30:10;;;;;;;41.33;25.20;;;21.70;77.30;;;;;;4160982;28;20072;-68
2021/12/02 02:32:15;;;;;;;337.17;35.50;;;21.80;77.40;;;;;;4160237;28;20099;-68
2021/12/02 02:34:23;;;;;;;123.43;26.70;;;21.90;77.80;;;;;;4160184;28;20522;-68
2021/12/02 02:36:31;;;;;;;63.35;18.35;;;22.00;76.40;;;;;;4159160;28;20124;-68
2021/12/02 02:38:37;;;;;;;34.33;14.35;;;22.10;75.10;;;;;;4160713;28;20049;-68
2021/12/02 02:40:45;;;;;;;25.48;13.30;;;22.20;74.00;;;;;;4161291;28;20491;-68
2021/12/02 02:42:49;;;;;;;26.88;14.68;;;22.20;74.00;;;;;;4160765;28;20391;-70
2021/12/02 02:44:54;;;;;;;26.08;13.75;;;22.40;74.30;;;;;;4161940;28;20057;-68
2021/12/02 02:47:00;;;;;;;22.10;12.82;;;22.40;73.10;;;;;;4161028;28;20419;-68
2021/12/02 02:49:08;;;;;;;23.67;13.38;;;22.40;72.40;;;;;;4161485;28;20045;-68
2021/12/02 02:51:12;;;;;;;52.47;14.98;;;22.40;72.60;;;;;;4160920;28;20376;-68
2021/12/02 02:53:24;;;;;;;58.65;14.50;;;22.60;73.10;;;;;;4161821;28;20051;-68
2021/12/02 02:55:29;;;;;;;109.72;18.58;;;22.60;72.10;;;;;;4160825;28;20454;-68
2021/12/02 02:57:42;;;;;;;50.92;14.10;;;22.60;71.90;;;;;;4161951;28;20034;-68
2021/12/02 03:04:33;;;;;;;24.35;13.40;;;22.70;72.60;;;;;;4161786;28;20073;-64
2021/12/02 03:09:01;;;;;;;21.52;12.00;;;22.90;70.90;;;;;;4172525;28;20041;-67
2021/12/02 03:11:06;;;;;;;19.48;11.23;;;23.00;70.80;;;;;;4159980;28;20056;-67
2021/12/02 03:17:23;;;;;;;17.77;11.43;;;23.00;70.20;;;;;;4162273;28;20511;-67
2021/12/02 03:19:30;;;;;;;20.27;11.38;;;23.20;70.00;;;;;;4163943;28;20050;-67
2021/12/02 03:21:35;;;;;;;21.85;11.15;;;23.20;70.10;;;;;;4163950;28;20222;-67
2021/12/02 03:23:59;;;;;;;25.15;11.02;;;23.20;69.10;;;;;;4162061;28;20061;-68
2021/12/02 03:26:03;;;;;;;;;;;23.30;68.90;;;;;;4164818;28;20140;-68
2021/12/02 03:28:07;;;;;;;21.80;10.70;;;23.30;68.20;;;;;;4165332;28;19928;-68
2021/12/02 03:30:11;;;;;;;17.02;10.07;;;23.30;67.90;;;;;;4161291;28;20061;-68
2021/12/02 03:32:16;;;;;;;21.92;11.30;;;23.40;68.10;;;;;;4163649;28;20325;-68
2021/12/02 03:34:20;;;;;;;20.10;10.68;;;23.40;68.30;;;;;;4164154;28;20467;-68
2021/12/02 03:36:25;;;;;;;17.65;10.13;;;23.40;68.70;;;;;;4164170;28;20051;-68
2021/12/02 03:38:29;;;;;;;17.98;11.25;;;23.40;67.30;;;;;;4162847;28;20038;-68
2021/12/02 03:40:33;;;;;;;26.92;11.23;;;23.50;67.50;;;;;;4163061;28;20045;-68
2021/12/02 03:42:43;;;;;;;19.33;10.23;;;23.50;67.00;;;;;;4161294;28;20041;-68
2021/12/02 03:44:47;;;;;;;25.17;10.98;;;23.50;66.60;;;;;;4175965;28;20422;-68
2021/12/02 03:46:51;;;;;;;18.95;10.55;;;23.50;66.70;;;;;;4177081;28;20065;-69
2021/12/02 03:48:56;;;;;;;18.88;10.43;;;23.60;66.30;;;;;;4175752;28;20052;-68
2021/12/02 03:51:02;;;;;;;22.85;10.95;;;23.60;65.90;;;;;;4177268;28;20045;-68
2021/12/02 03:53:06;;;;;;;30.25;10.55;;;23.70;66.20;;;;;;4177861;28;20084;-68
2021/12/02 03:55:11;;;;;;;16.42;10.35;;;23.70;65.90;;;;;;4177465;28;20044;-70
2021/12/02 03:57:16;;;;;;;20.42;10.10;;;23.90;65.60;;;;;;4175266;28;20048;-67
2021/12/02 03:59:20;;;;;;;18.92;9.88;;;23.90;65.70;;;;;;4178119;28;20099;-68
2021/12/02 04:01:25;;;;;;;16.35;9.60;;;24.00;65.40;;;;;;4154908;28;20043;-68
2021/12/02 04:03:29;;;;;;;17.05;10.43;;;24.00;64.80;;;;;;4172452;28;20191;-68
2021/12/02 04:05:34;;;;;;;26.35;10.48;;;24.00;65.00;;;;;;4166388;28;20065;-68
2021/12/02 04:07:41;;;;;;;20.10;9.80;;;24.10;65.60;;;;;;4165715;28;20132;-68
2021/12/02 04:09:46;;;;;;;22.33;10.27;;;24.20;65.60;;;;;;4176282;28;20619;-68
2021/12/02 04:12:02;;;;;;;23.17;11.05;;;24.10;64.70;;;;;;4175970;28;20313;-67
2021/12/02 04:14:19;;;;;;;19.77;11.02;;;24.20;64.30;;;;;;4175942;28;20037;-68
2021/12/02 04:16:25;;;;;;;20.17;11.57;;;24.20;63.90;;;;;;4165729;28;20613;-68
2021/12/02 04:18:29;;;;;;;20.13;10.93;;;24.20;64.20;;;;;;4159500;28;20069;-70
2021/12/02 04:20:36;;;;;;;22.42;10.40;;;24.30;64.40;;;;;;4162104;28;20427;-71
2021/12/02 04:22:42;;;;;;;20.67;11.40;;;24.40;64.40;;;;;;4161142;28;20049;-70
2021/12/02 04:24:47;;;;;;;16.67;10.77;;;24.40;64.50;;;;;;4162721;28;20074;-70
2021/12/02 04:26:51;;;;;;;20.73;10.60;;;24.40;65.10;;;;;;4163920;28;20058;-70
2021/12/02 04:28:55;;;;;;;20.02;12.05;;;24.50;64.60;;;;;;4163027;28;20427;-70
2021/12/02 04:30:59;;;;;;;18.88;11.23;;;24.60;64.30;;;;;;4162876;28;20479;-70
2021/12/02 04:33:04;;;;;;;20.30;10.73;;;24.50;63.80;;;;;;4162508;28;20045;-70
2021/12/02 04:35:12;;;;;;;23.95;12.88;;;24.50;64.60;;;;;;4160555;28;20049;-70
2021/12/02 04:37:16;;;;;;;24.15;13.38;;;24.60;64.30;;;;;;4145995;28;20124;-70
2021/12/02 04:39:20;;;;;;;18.35;11.88;;;24.60;63.90;;;;;;4162199;28;20052;-70
2021/12/02 04:41:25;;;;;;;16.90;11.60;;;24.60;64.20;;;;;;4163048;28;20095;-70
2021/12/02 04:43:29;;;;;;;21.35;11.88;;;24.60;64.20;;;;;;4160203;28;20041;-70
2021/12/02 04:45:34;;;;;;;17.98;11.65;;;24.60;63.60;;;;;;4162838;28;20232;-69
2021/12/02 04:47:38;;;;;;;27.90;11.65;;;24.60;64.60;;;;;;4163256;28;20079;-70
2021/12/02 04:49:43;;;;;;;20.75;11.57;;;24.80;64.50;;;;;;4162815;28;20049;-70
2021/12/02 04:51:47;;;;;;;23.63;11.55;;;24.80;64.30;;;;;;4161758;28;20060;-69
2021/12/02 04:53:52;;;;;;;21.80;10.80;;;24.80;63.40;;;;;;4161954;28;20037;-70
2021/12/02 04:55:56;;;;;;;19.15;11.20;;;24.80;63.20;;;;;;4162091;28;20045;-70
2021/12/02 04:58:00;;;;;;;20.85;10.75;;;24.90;62.60;;;;;;4162782;28;20034;-70
2021/12/02 05:00:07;;;;;;;17.23;10.50;;;24.90;63.20;;;;;;4160128;28;20033;-70
2021/12/02 05:02:11;;;;;;;21.85;11.27;;;25.00;63.50;;;;;;4162017;28;20064;-69
2021/12/02 05:04:16;;;;;;;17.75;10.15;;;25.00;62.30;;;;;;4162780;28;20045;-69
2021/12/02 05:06:21;;;;;;;19.02;10.30;;;25.00;61.80;;;;;;4159469;28;20498;-70
2021/12/02 05:08:25;;;;;;;19.80;10.23;;;25.00;62.40;;;;;;4162468;28;20042;-70
2021/12/02 05:10:29;;;;;;;19.02;10.45;;;25.00;62.30;;;;;;4161906;28;20041;-69
2021/12/02 05:12:34;;;;;;;17.55;9.57;;;25.10;62.80;;;;;;4161368;28;20048;-70
2021/12/02 05:14:38;;;;;;;20.40;11.20;;;25.10;62.00;;;;;;4161225;28;20037;-70
2021/12/02 05:16:43;;;;;;;15.48;10.73;;;25.20;61.90;;;;;;4161213;28;20124;-69
2021/12/02 05:18:48;;;;;;;16.80;10.55;;;25.20;62.20;;;;;;4161369;28;20053;-69
2021/12/02 05:20:52;;;;;;;16.38;9.90;;;25.20;62.50;;;;;;4160299;28;20047;-69
2021/12/02 05:22:56;;;;;;;20.88;10.43;;;25.20;62.10;;;;;;4160958;28;20048;-69
2021/12/02 05:25:02;;;;;;;28.15;10.80;;;25.20;62.20;;;;;;4160969;28;20045;-68
2021/12/02 05:27:06;;;;;;;23.33;10.95;;;25.20;62.30;;;;;;4160745;28;20727;-68
2021/12/02 05:29:10;;;;;;;24.55;9.73;;;25.30;62.10;;;;;;4161675;28;20136;-69
2021/12/02 05:31:15;;;;;;;17.45;9.98;;;25.30;61.20;;;;;;4161346;28;20061;-68
2021/12/02 05:33:19;;;;;;;19.23;9.68;;;25.30;62.10;;;;;;4161382;28;20481;-68
2021/12/02 05:35:25;;;;;;;17.23;10.85;;;25.30;61.50;;;;;;4161882;28;20041;-68
2021/12/02 05:37:29;;;;;;;16.55;9.90;;;25.40;62.30;;;;;;4160962;28;20499;-69
2021/12/02 05:39:34;;;;;;;15.95;9.57;;;25.40;62.20;;;;;;4161756;28;20052;-70
2021/12/02 05:41:38;;;;;;;13.77;9.70;;;25.50;61.40;;;;;;4160608;28;20281;-69
2021/12/02 05:43:43;;;;;;;16.25;9.25;;;25.40;60.90;;;;;;4161118;28;20050;-69
2021/12/02 05:45:47;;;;;;;15.32;9.75;;;25.50;62.10;;;;;;4161767;28;20045;-70
2021/12/02 05:47:52;;;;;;;15.70;9.25;;;25.50;61.60;;;;;;4155616;28;20076;-70
2021/12/02 05:49:56;;;;;;;17.90;9.52;;;25.50;61.10;;;;;;4159403;28;20045;-69
2021/12/02 05:52:00;;;;;;;16.17;9.77;;;25.60;61.50;;;;;;4152464;28;20041;-68
2021/12/02 05:54:05;;;;;;;18.67;9.45;;;25.60;61.70;;;;;;4155121;28;20041;-68
2021/12/02 05:56:09;;;;;;;17.80;9.15;;;25.60;61.00;;;;;;4145847;28;20478;-68
2021/12/02 05:58:14;;;;;;;17.63;9.52;;;25.60;60.50;;;;;;4147204;28;20111;-69
2021/12/02 06:00:19;;;;;;;17.90;9.02;;;25.60;60.80;;;;;;4155909;28;20049;-67
2021/12/02 06:02:24;;;;;;;17.95;9.05;;;25.60;60.60;;;;;;4157268;28;20527;-68
2021/12/02 06:04:29;;;;;;;25.95;9.15;;;25.70;60.90;;;;;;4158396;28;20061;-68
2021/12/02 06:06:33;;;;;;;16.75;9.55;;;25.70;61.00;;;;;;4158159;28;20045;-68
2021/12/02 06:08:38;;;;;;;22.83;10.52;;;25.80;61.90;;;;;;4157402;28;20626;-70
2021/12/02 06:10:42;;;;;;;22.98;9.90;;;25.80;61.30;;;;;;4159171;28;20419;-67
2021/12/02 06:12:47;;;;;;;17.92;9.55;;;25.90;60.90;;;;;;4158829;28;20407;-67
2021/12/02 06:14:51;;;;;;;19.75;9.90;;;25.90;60.50;;;;;;4158270;28;20033;-68
2021/12/02 06:16:56;;;;;;;16.48;9.48;;;25.90;60.30;;;;;;4158615;28;20041;-67
2021/12/02 06:19:00;;;;;;;15.55;9.25;;;25.90;60.40;;;;;;4156975;28;20299;-67
2021/12/02 06:21:05;;;;;;;19.00;9.43;;;25.90;60.90;;;;;;4158871;28;20529;-67
2021/12/02 06:23:09;;;;;;;19.05;9.57;;;25.90;60.60;;;;;;4158641;28;20088;-67
2021/12/02 06:27:18;;;;;;;43.85;10.50;;;26.00;60.70;;;;;;4158170;28;20144;-67
2021/12/02 06:29:25;;;;;;;47.28;12.20;;;26.00;60.80;;;;;;4158566;28;20530;-67
2021/12/02 06:31:29;;;;;;;24.42;9.68;;;26.00;59.90;;;;;;4158751;28;20156;-67
2021/12/02 06:33:34;;;;;;;16.45;9.68;;;26.10;61.00;;;;;;4157876;28;20045;-67
2021/12/02 06:35:40;;;;;;;15.27;9.30;;;26.00;60.50;;;;;;4156469;28;20038;-66
2021/12/02 06:37:46;;;;;;;21.33;10.05;;;26.00;60.50;;;;;;4158523;28;20388;-67
2021/12/02 06:39:50;;;;;;;41.83;13.77;;;26.00;61.20;;;;;;4158424;28;20053;-67
2021/12/02 06:41:55;;;;;;;36.80;12.27;;;26.10;62.00;;;;;;4158210;28;20037;-67
2021/12/02 06:43:59;;;;;;;25.33;11.20;;;26.10;61.90;;;;;;4157218;28;20149;-67
2021/12/02 06:46:04;;;;;;;28.88;11.60;;;26.20;61.80;;;;;;4158077;28;20546;-67
2021/12/02 06:48:08;;;;;;;31.55;10.63;;;26.10;61.70;;;;;;4158933;28;20132;-67
2021/12/02 06:50:19;;;;;;;18.17;9.90;;;26.10;61.90;;;;;;4158267;28;20132;-67
2021/12/02 06:52:27;;;;;;;19.23;11.55;;;26.10;60.60;;;;;;4157466;28;20448;-67
2021/12/02 06:54:31;;;;;;;32.13;13.77;;;26.20;60.70;;;;;;4158765;28;20045;-67
2021/12/02 06:56:35;;;;;;;16.13;9.90;;;26.20;61.80;;;;;;4159944;28;20042;-67
2021/12/02 06:58:40;;;;;;;15.65;9.52;;;26.20;61.10;;;;;;4156668;28;20048;-68
2021/12/02 07:00:44;;;;;;;14.23;9.20;;;26.20;60.90;;;;;;4158166;28;20056;-68
2021/12/02 07:02:49;;;;;;;16.50;8.82;;;26.20;60.40;;;;;;4158433;28;20482;-68
2021/12/02 07:04:58;;;;;;;21.50;12.65;;;26.20;60.20;;;;;;4156368;28;20053;-68
2021/12/02 07:07:03;;;;;;;16.13;9.30;;;26.20;61.10;;;;;;4157729;28;20524;-67
2021/12/02 07:09:07;;;;;;;22.25;9.60;;;26.40;61.10;;;;;;4158881;28;20103;-67
2021/12/02 07:11:12;;;;;;;28.58;9.30;;;26.20;60.30;;;;;;4158680;28;20046;-68
2021/12/02 07:13:16;;;;;;;15.15;9.45;;;26.20;60.90;;;;;;4159154;28;20124;-68
2021/12/02 07:15:27;;;;;;;22.85;9.85;;;26.20;59.70;;;;;;4156145;28;20128;-68
2021/12/02 07:17:33;;;;;;;17.20;9.05;;;26.20;60.20;;;;;;4157701;28;20050;-67
2021/12/02 07:19:40;;;;;;;20.65;9.20;;;26.20;60.40;;;;;;4159432;28;20060;-68
2021/12/02 07:21:46;;;;;;;19.38;8.77;;;26.20;60.10;;;;;;4157182;28;20052;-68
2021/12/02 07:23:52;;;;;;;17.83;9.10;;;26.20;60.60;;;;;;4157648;28;20041;-68
2021/12/02 07:25:56;;;;;;;14.98;8.43;;;26.20;60.70;;;;;;4158241;28;20522;-68
2021/12/02 07:28:01;;;;;;;15.93;9.50;;;26.30;60.00;;;;;;4153222;28;20521;-68
2021/12/02 07:30:06;;;;;;;16.85;8.55;;;26.30;59.40;;;;;;4159600;28;20059;-68
2021/12/02 07:32:11;;;;;;;15.90;8.63;;;26.30;60.00;;;;;;4163119;28;20376;-68
2021/12/02 07:34:15;;;;;;;14.20;8.52;;;26.40;59.10;;;;;;4159494;28;20072;-68
2021/12/02 07:36:19;;;;;;;16.23;8.32;;;26.40;59.70;;;;;;4156035;28;20041;-68
2021/12/02 07:38:23;;;;;;;15.32;8.60;;;26.30;59.70;;;;;;4160550;28;20049;-67
2021/12/02 07:40:30;;;;;;;15.55;8.95;;;26.30;60.20;;;;;;4159566;28;20407;-68
2021/12/02 07:42:34;;;;;;;15.98;8.43;;;26.30;59.30;;;;;;4160749;28;20124;-68
2021/12/02 07:44:39;;;;;;;14.32;8.32;;;26.30;59.70;;;;;;4159289;28;20051;-67
2021/12/02 07:46:46;;;;;;;15.20;9.10;;;26.30;59.70;;;;;;4161036;28;20049;-67
2021/12/02 07:48:52;;;;;;;23.90;10.60;;;26.40;59.80;;;;;;4161459;28;20471;-68
2021/12/02 07:51:01;;;;;;;21.05;10.15;;;26.50;59.90;;;;;;4161487;28;20083;-68
2021/12/02 07:53:06;;;;;;;23.77;9.40;;;26.40;59.80;;;;;;4159366;28;20037;-69
2021/12/02 07:55:14;;;;;;;16.67;10.25;;;26.40;59.80;;;;;;4160623;28;20049;-69
2021/12/02 07:57:18;;;;;;;20.48;10.00;;;26.40;60.00;;;;;;4158048;28;20631;-69
2021/12/02 07:59:23;;;;;;;16.70;9.80;;;26.40;60.50;;;;;;4161118;28;20558;-69
2021/12/02 08:01:29;;;;;;;16.60;9.48;;;26.40;59.70;;;;;;4142105;28;20146;-69
2021/12/02 08:03:34;;;;;;;19.38;10.02;;;26.40;60.70;;;;;;4142424;28;20078;-69
2021/12/02 08:05:38;;;;;;;15.45;9.52;;;26.40;60.40;;;;;;4141890;28;20127;-69
2021/12/02 08:07:44;;;;;;;17.77;9.93;;;26.40;60.40;;;;;;4156543;28;20137;-69
2021/12/02 08:09:49;;;;;;;21.77;10.15;;;26.40;60.40;;;;;;4158753;28;20355;-69
2021/12/02 08:11:54;;;;;;;19.13;10.02;;;26.40;60.30;;;;;;4158614;28;20057;-69
2021/12/02 08:13:58;;;;;;;14.25;9.38;;;26.40;60.30;;;;;;4158621;28;20087;-69
2021/12/02 08:16:05;;;;;;;14.10;9.57;;;26.40;60.50;;;;;;4157332;28;20046;-69
2021/12/02 08:18:10;;;;;;;19.02;10.55;;;26.40;60.40;;;;;;4158752;28;20038;-69
2021/12/02 08:20:15;;;;;;;19.02;9.88;;;26.40;60.40;;;;;;4158727;28;20041;-69
2021/12/02 08:22:19;;;;;;;20.83;10.30;;;26.40;60.40;;;;;;4156061;28;20048;-69
2021/12/02 08:24:25;;;;;;;22.27;12.02;;;26.40;60.40;;;;;;4158186;28;20560;-68
2021/12/02 08:26:31;;;;;;;20.88;11.43;;;26.40;60.00;;;;;;4157521;28;20147;-68
2021/12/02 08:28:35;;;;;;;19.40;11.07;;;26.40;60.30;;;;;;4158357;28;20558;-68
2021/12/02 08:30:40;;;;;;;16.10;10.20;;;26.40;60.60;;;;;;4155283;28;20058;-68
2021/12/02 08:32:45;;;;;;;20.38;9.90;;;26.40;60.50;;;;;;4157653;28;20105;-68
2021/12/02 08:34:53;;;;;;;17.05;10.32;;;26.40;60.80;;;;;;4157948;28;20057;-68
2021/12/02 08:36:57;;;;;;;15.15;10.13;;;26.40;60.20;;;;;;4157694;28;20095;-68
2021/12/02 08:39:06;;;;;;;18.75;9.63;;;26.40;60.80;;;;;;4158956;28;20567;-68
2021/12/02 08:41:12;;;;;;;22.13;10.57;;;26.40;60.90;;;;;;4137665;28;20121;-68
2021/12/02 08:43:18;;;;;;;17.08;9.60;;;26.40;60.60;;;;;;4160123;28;20446;-68
2021/12/02 08:45:24;;;;;;;19.27;9.73;;;26.40;60.60;;;;;;4158406;28;20538;-68
2021/12/02 08:47:28;;;;;;;20.42;9.60;;;26.40;61.50;;;;;;4160452;28;20064;-68
2021/12/02 08:49:33;;;;;;;13.00;9.10;;;26.40;60.20;;;;;;4160549;28;20072;-68
2021/12/02 08:51:37;;;;;;;18.10;8.43;;;26.40;60.40;;;;;;4159963;28;20124;-68
2021/12/02 08:53:42;;;;;;;15.48;9.07;;;26.40;60.00;;;;;;4156571;28;20430;-67
2021/12/02 08:55:46;;;;;;;19.08;9.05;;;26.40;60.20;;;;;;4160400;28;20048;-68
2021/12/02 08:57:51;;;;;;;20.65;9.52;;;26.40;60.60;;;;;;4160573;28;20525;-67
2021/12/02 08:59:56;;;;;;;18.58;10.20;;;26.40;60.50;;;;;;4161909;28;20129;-68
2021/12/02 09:02:03;;;;;;;18.23;9.80;;;26.40;60.50;;;;;;4161950;28;20064;-67
2021/12/02 09:04:08;;;;;;;18.92;10.13;;;26.30;59.60;;;;;;4162801;28;20140;-66
2021/12/02 09:06:21;;;;;;;14.90;9.35;;;26.30;60.30;;;;;;4160450;28;20044;-66
2021/12/02 09:08:26;;;;;;;14.48;9.80;;;26.30;60.40;;;;;;4159687;28;20084;-65
2021/12/02 09:10:30;;;;;;;15.48;9.35;;;26.30;60.50;;;;;;4155259;28;20041;-64
2021/12/02 09:12:35;;;;;;;19.15;9.30;;;26.30;60.40;;;;;;4156540;28;20053;-65
2021/12/02 09:14:39;;;;;;;17.92;9.30;;;26.30;60.60;;;;;;4149908;28;20538;-66
2021/12/02 09:16:44;;;;;;;14.20;9.25;;;26.30;60.80;;;;;;4154216;28;20853;-65
2021/12/02 09:18:49;;;;;;;19.52;9.98;;;26.30;60.70;;;;;;4156909;28;20524;-65
2021/12/02 09:20:53;;;;;;;19.60;10.98;;;26.30;60.90;;;;;;4157455;28;20049;-65
2021/12/02 09:22:58;;;;;;;17.90;10.32;;;26.30;61.10;;;;;;4159210;28;20140;-66
2021/12/02 09:25:04;;;;;;;18.08;10.95;;;26.30;61.10;;;;;;4157556;28;20068;-66
2021/12/02 09:27:09;;;;;;;18.63;9.88;;;26.30;61.20;;;;;;4161824;28;20058;-66
2021/12/02 09:29:15;;;;;;;13.68;9.70;;;26.20;61.00;;;;;;4159530;28;20068;-66
2021/12/02 09:31:21;;;;;;;15.43;9.90;;;26.20;61.50;;;;;;4157111;28;20136;-65
2021/12/02 09:33:25;;;;;;;15.95;10.02;;;26.30;61.60;;;;;;4160501;28;20084;-66
2021/12/02 09:35:30;;;;;;;20.15;11.63;;;26.30;61.70;;;;;;4160083;28;20396;-65
2021/12/02 09:37:34;;;;;;;18.73;11.00;;;26.30;61.50;;;;;;4160289;28;20065;-66
2021/12/02 09:39:40;;;;;;;19.13;11.18;;;26.20;61.70;;;;;;4159941;28;20658;-66
2021/12/02 09:41:45;;;;;;;20.27;10.48;;;26.20;61.60;;;;;;4158911;28;20083;-66
2021/12/02 09:43:50;;;;;;;14.63;10.52;;;26.20;61.20;;;;;;4160087;28;20057;-66
2021/12/02 09:45:54;;;;;;;17.33;10.55;;;26.10;61.50;;;;;;4160017;28;20107;-66
2021/12/02 09:47:59;;;;;;;17.83;10.60;;;26.20;61.50;;;;;;4159256;28;20045;-66
2021/12/02 09:50:08;;;;;;;22.23;11.45;;;26.20;61.80;;;;;;4159277;28;20613;-66
2021/12/02 09:52:15;;;;;;;22.65;11.63;;;26.10;61.80;;;;;;4156495;28;20068;-66
2021/12/02 09:54:25;;;;;;;23.00;11.52;;;26.10;62.00;;;;;;4159269;28;20507;-66
2021/12/02 09:56:31;;;;;;;16.73;10.60;;;26.00;62.60;;;;;;4159709;28;20046;-66
2021/12/02 09:58:36;;;;;;;18.27;10.93;;;26.00;62.60;;;;;;4156910;28;20049;-65
2021/12/02 10:00:48;;;;;;;21.33;11.05;;;26.10;62.70;;;;;;4158880;28;20041;-65
2021/12/02 10:03:02;;;;;;;20.67;11.02;;;26.00;62.70;;;;;;4155885;28;20236;-65
2021/12/02 10:05:11;;;;;;;22.15;10.63;;;26.00;62.70;;;;;;4158748;28;20048;-65
2021/12/02 10:09:41;;;;;;;24.70;10.93;;;25.90;63.30;;;;;;4158666;28;20045;-65
2021/12/02 10:11:55;;;;;;;19.15;10.27;;;25.90;63.00;;;;;;4155813;28;20112;-65
2021/12/02 10:14:23;;;;;;;18.80;10.07;;;25.90;63.20;;;;;;4156869;28;20461;-65
2021/12/02 10:18:48;;;;;;;18.98;11.07;;;25.90;63.30;;;;;;4140537;28;20038;-65
2021/12/02 10:20:52;;;;;;;16.10;10.65;;;25.80;63.30;;;;;;4155158;28;20092;-65
2021/12/02 10:23:19;;;;;;;21.63;11.40;;;25.80;63.60;;;;;;4156102;28;20196;-65
2021/12/02 10:25:31;;;;;;;19.08;11.88;;;25.80;63.90;;;;;;4154491;28;20546;-65
2021/12/02 10:27:36;;;;;;;23.58;11.05;;;25.80;64.00;;;;;;4156161;28;20573;-65
2021/12/02 10:29:42;;;;;;;24.25;12.60;;;25.70;64.20;;;;;;4156512;28;20076;-66
2021/12/02 10:31:47;;;;;;;25.38;12.05;;;25.70;64.40;;;;;;4155976;28;20057;-65
2021/12/02 10:33:56;;;;;;;31.33;13.20;;;25.70;64.50;;;;;;4157903;28;20286;-65
2021/12/02 10:36:01;;;;;;;42.50;15.63;;;25.70;64.80;;;;;;4174839;28;20128;-66
2021/12/02 10:38:05;;;;;;;35.25;15.52;;;25.60;65.20;;;;;;4158561;28;20045;-66
2021/12/02 10:40:14;;;;;;;26.55;15.30;;;25.60;65.70;;;;;;4159327;28;20060;-65
2021/12/02 10:42:21;;;;;;;28.92;15.05;;;25.50;65.80;;;;;;4158697;28;20089;-65
2021/12/02 10:44:29;;;;;;;36.53;15.45;;;25.50;66.10;;;;;;4159128;28;20045;-66
2021/12/02 10:46:35;;;;;;;33.05;15.55;;;25.50;66.30;;;;;;4156856;28;20053;-65
2021/12/02 10:48:51;;;;;;;30.60;15.32;;;25.40;66.60;;;;;;4153990;28;20049;-65
2021/12/02 10:50:56;;;;;;;30.10;15.25;;;25.40;66.90;;;;;;4158632;28;20114;-65
2021/12/02 10:53:03;;;;;;;29.33;15.18;;;25.40;67.20;;;;;;4157634;28;20058;-66
2021/12/02 10:55:10;;;;;;;27.13;15.07;;;25.40;67.30;;;;;;4159498;28;20050;-65
2021/12/02 10:57:19;;;;;;;114.43;53.28;;;25.40;67.70;;;;;;4165531;28;20063;-65
2021/12/02 10:59:30;;;;;;;161.07;82.72;;;25.30;66.90;;;;;;4175848;28;20588;-66
2021/12/02 11:01:38;;;;;;;174.85;90.90;;;25.20;67.10;;;;;;4162199;28;20038;-65